sensor_id;sensor_type;location;lat;lon;timestamp;pressure;altitude;pressure_sealevel;temperature;humidity
45813;BME280;31519;45.408;10.962;2023-01-31T00:00:08;101088.63;;;5.33;79.25
45813;BME280;31519;45.408;10.962;2023-01-31T00:02:57;101097.59;;;5.32;79.54
45813;BME280;31519;45.408;10.962;2023-01-31T00:05:25;101099.47;;;5.31;79.31
45813;BME280;31519;45.408;10.962;2023-01-31T00:07:53;101087.63;;;5.39;78.43
45813;BME280;31519;45.408;10.962;2023-01-31T00:10:22;101087.97;;;5.16;79.20
45813;BME280;31519;45.408;10.962;2023-01-31T00:12:50;101094.78;;;5.07;79.26
45813;BME280;31519;45.408;10.962;2023-01-31T00:15:19;101106.19;;;5.12;79.02
45813;BME280;31519;45.408;10.962;2023-01-31T00:17:47;101106.31;;;5.32;79.35
45813;BME280;31519;45.408;10.962;2023-01-31T00:20:17;101100.66;;;5.19;79.54
45813;BME280;31519;45.408;10.962;2023-01-31T00:22:45;101094.97;;;5.37;79.22
45813;BME280;31519;45.408;10.962;2023-01-31T00:25:13;101100.00;;;5.33;78.93
45813;BME280;31519;45.408;10.962;2023-01-31T00:27:41;101103.91;;;5.26;79.36
45813;BME280;31519;45.408;10.962;2023-01-31T00:30:11;101108.03;;;5.12;79.81
45813;BME280;31519;45.408;10.962;2023-01-31T00:32:39;101108.56;;;5.14;79.87
45813;BME280;31519;45.408;10.962;2023-01-31T00:35:08;101109.69;;;5.23;79.19
45813;BME280;31519;45.408;10.962;2023-01-31T00:37:36;101114.94;;;5.18;79.15
45813;BME280;31519;45.408;10.962;2023-01-31T00:40:05;101122.28;;;5.48;78.88
45813;BME280;31519;45.408;10.962;2023-01-31T00:42:33;101110.84;;;5.37;78.93
45813;BME280;31519;45.408;10.962;2023-01-31T00:45:04;101127.06;;;5.19;79.45
45813;BME280;31519;45.408;10.962;2023-01-31T00:47:32;101125.47;;;5.55;77.53
45813;BME280;31519;45.408;10.962;2023-01-31T00:50:00;101131.34;;;5.25;78.05
45813;BME280;31519;45.408;10.962;2023-01-31T00:52:29;101128.50;;;5.00;78.58
45813;BME280;31519;45.408;10.962;2023-01-31T00:54:57;101132.31;;;5.14;79.30
45813;BME280;31519;45.408;10.962;2023-01-31T00:57:25;101143.19;;;5.17;78.30
45813;BME280;31519;45.408;10.962;2023-01-31T00:59:53;101132.31;;;5.14;78.03
45813;BME280;31519;45.408;10.962;2023-01-31T01:02:22;101127.41;;;4.96;78.75
45813;BME280;31519;45.408;10.962;2023-01-31T01:04:50;101132.66;;;4.90;79.24
45813;BME280;31519;45.408;10.962;2023-01-31T01:07:19;101144.09;;;5.01;79.15
45813;BME280;31519;45.408;10.962;2023-01-31T01:09:47;101145.03;;;4.85;79.76
45813;BME280;31519;45.408;10.962;2023-01-31T01:12:15;101144.75;;;4.86;79.83
45813;BME280;31519;45.408;10.962;2023-01-31T01:14:43;101146.63;;;4.91;79.76
45813;BME280;31519;45.408;10.962;2023-01-31T01:17:11;101145.22;;;4.78;80.33
45813;BME280;31519;45.408;10.962;2023-01-31T01:19:39;101154.28;;;4.87;80.14
45813;BME280;31519;45.408;10.962;2023-01-31T01:22:08;101161.69;;;4.90;79.55
45813;BME280;31519;45.408;10.962;2023-01-31T01:24:36;101157.59;;;5.05;79.59
45813;BME280;31519;45.408;10.962;2023-01-31T01:27:04;101160.31;;;5.15;78.51
45813;BME280;31519;45.408;10.962;2023-01-31T01:29:32;101163.75;;;5.15;78.37
45813;BME280;31519;45.408;10.962;2023-01-31T01:32:01;101161.34;;;4.82;79.14
45813;BME280;31519;45.408;10.962;2023-01-31T01:34:29;101164.81;;;4.61;80.13
45813;BME280;31519;45.408;10.962;2023-01-31T01:36:58;101166.03;;;4.75;79.97
45813;BME280;31519;45.408;10.962;2023-01-31T01:39:26;101168.38;;;4.71;79.87
45813;BME280;31519;45.408;10.962;2023-01-31T01:41:57;101170.09;;;4.61;79.85
45813;BME280;31519;45.408;10.962;2023-01-31T01:44:52;101167.00;;;4.69;79.59
45813;BME280;31519;45.408;10.962;2023-01-31T01:47:35;101167.47;;;4.87;78.08
45813;BME280;31519;45.408;10.962;2023-01-31T02:51:44;101183.75;;;4.79;77.40
45813;BME280;31519;45.408;10.962;2023-01-31T02:54:38;101187.31;;;4.68;77.30
45813;BME280;31519;45.408;10.962;2023-01-31T02:57:26;101195.44;;;4.62;77.43
45813;BME280;31519;45.408;10.962;2023-01-31T02:59:55;101195.91;;;4.80;76.47
45813;BME280;31519;45.408;10.962;2023-01-31T03:02:24;101191.78;;;4.68;77.37
45813;BME280;31519;45.408;10.962;2023-01-31T03:04:53;101192.41;;;4.75;76.36
45813;BME280;31519;45.408;10.962;2023-01-31T03:07:23;101197.31;;;4.88;76.09
45813;BME280;31519;45.408;10.962;2023-01-31T03:10:01;101207.66;;;4.95;75.99
45813;BME280;31519;45.408;10.962;2023-01-31T03:12:45;101203.84;;;4.80;75.58
45813;BME280;31519;45.408;10.962;2023-01-31T03:18:06;101216.28;;;4.63;76.29
45813;BME280;31519;45.408;10.962;2023-01-31T03:23:22;101216.47;;;4.78;76.11
45813;BME280;31519;45.408;10.962;2023-01-31T03:25:57;101220.88;;;4.95;75.33
45813;BME280;31519;45.408;10.962;2023-01-31T03:28:29;101220.91;;;5.00;75.69
45813;BME280;31519;45.408;10.962;2023-01-31T03:31:18;101222.59;;;4.84;75.81
45813;BME280;31519;45.408;10.962;2023-01-31T03:33:59;101226.09;;;4.89;75.92
45813;BME280;31519;45.408;10.962;2023-01-31T03:40:20;101225.88;;;4.96;76.36
45813;BME280;31519;45.408;10.962;2023-01-31T03:43:20;101223.53;;;5.00;76.43
45813;BME280;31519;45.408;10.962;2023-01-31T03:45:58;101219.00;;;4.95;76.17
45813;BME280;31519;45.408;10.962;2023-01-31T03:48:32;101221.00;;;4.83;76.47
45813;BME280;31519;45.408;10.962;2023-01-31T03:51:06;101210.91;;;5.02;75.40
45813;BME280;31519;45.408;10.962;2023-01-31T03:53:44;101221.91;;;4.94;76.12
45813;BME280;31519;45.408;10.962;2023-01-31T03:56:30;101233.00;;;4.96;75.67
45813;BME280;31519;45.408;10.962;2023-01-31T03:59:05;101231.19;;;4.74;76.85
45813;BME280;31519;45.408;10.962;2023-01-31T04:01:38;101227.81;;;4.79;76.96
45813;BME280;31519;45.408;10.962;2023-01-31T04:04:10;101226.09;;;4.89;76.24
45813;BME280;31519;45.408;10.962;2023-01-31T04:06:40;101229.16;;;4.81;76.04
45813;BME280;31519;45.408;10.962;2023-01-31T04:09:09;101224.19;;;4.63;77.39
45813;BME280;31519;45.408;10.962;2023-01-31T04:11:39;101228.91;;;4.83;76.49
45813;BME280;31519;45.408;10.962;2023-01-31T04:14:09;101217.63;;;4.87;76.40
45813;BME280;31519;45.408;10.962;2023-01-31T04:16:37;101212.22;;;4.99;77.17
45813;BME280;31519;45.408;10.962;2023-01-31T04:19:06;101208.31;;;5.07;77.78
45813;BME280;31519;45.408;10.962;2023-01-31T04:21:34;101213.53;;;5.28;78.37
45813;BME280;31519;45.408;10.962;2023-01-31T04:24:03;101215.31;;;5.23;78.55
45813;BME280;31519;45.408;10.962;2023-01-31T04:26:31;101215.31;;;5.23;78.85
45813;BME280;31519;45.408;10.962;2023-01-31T04:29:02;101212.00;;;5.06;79.34
45813;BME280;31519;45.408;10.962;2023-01-31T04:31:30;101221.47;;;5.02;79.77
45813;BME280;31519;45.408;10.962;2023-01-31T04:33:59;101220.56;;;4.91;77.78
45813;BME280;31519;45.408;10.962;2023-01-31T04:36:27;101228.72;;;4.63;77.54
45813;BME280;31519;45.408;10.962;2023-01-31T04:38:55;101230.28;;;4.42;78.13
45813;BME280;31519;45.408;10.962;2023-01-31T04:41:23;101239.31;;;4.46;77.16
45813;BME280;31519;45.408;10.962;2023-01-31T04:43:52;101236.78;;;4.34;77.69
45813;BME280;31519;45.408;10.962;2023-01-31T04:46:20;101239.50;;;4.01;78.47
45813;BME280;31519;45.408;10.962;2023-01-31T04:48:48;101232.28;;;4.13;78.15
45813;BME280;31519;45.408;10.962;2023-01-31T04:51:16;101239.72;;;3.99;78.59
45813;BME280;31519;45.408;10.962;2023-01-31T04:53:44;101254.16;;;4.14;77.79
45813;BME280;31519;45.408;10.962;2023-01-31T04:56:12;101247.16;;;3.86;78.63
45813;BME280;31519;45.408;10.962;2023-01-31T04:58:41;101237.25;;;4.10;77.75
45813;BME280;31519;45.408;10.962;2023-01-31T05:01:10;101238.13;;;4.15;77.46
45813;BME280;31519;45.408;10.962;2023-01-31T05:03:38;101233.72;;;4.04;77.27
45813;BME280;31519;45.408;10.962;2023-01-31T05:06:06;101233.41;;;4.00;77.71
45813;BME280;31519;45.408;10.962;2023-01-31T05:08:35;101235.97;;;3.95;77.73
45813;BME280;31519;45.408;10.962;2023-01-31T05:11:04;101230.84;;;4.06;77.93
45813;BME280;31519;45.408;10.962;2023-01-31T05:13:35;101237.16;;;4.05;77.78
45813;BME280;31519;45.408;10.962;2023-01-31T05:16:08;101234.84;;;4.08;77.96
45813;BME280;31519;45.408;10.962;2023-01-31T05:18:38;101242.28;;;4.11;77.92
45813;BME280;31519;45.408;10.962;2023-01-31T05:21:07;101239.22;;;4.41;75.62
45813;BME280;31519;45.408;10.962;2023-01-31T05:23:35;101243.63;;;4.35;75.78
45813;BME280;31519;45.408;10.962;2023-01-31T05:26:03;101255.84;;;4.41;74.94
45813;BME280;31519;45.408;10.962;2023-01-31T05:28:33;101248.81;;;4.09;75.80
45813;BME280;31519;45.408;10.962;2023-01-31T05:31:06;101248.81;;;4.25;75.47
45813;BME280;31519;45.408;10.962;2023-01-31T05:33:35;101243.81;;;3.90;76.05
45813;BME280;31519;45.408;10.962;2023-01-31T05:36:03;101229.72;;;4.18;75.56
45813;BME280;31519;45.408;10.962;2023-01-31T05:38:32;101228.38;;;4.16;75.26
45813;BME280;31519;45.408;10.962;2023-01-31T05:41:00;101231.16;;;4.26;75.40
45813;BME280;31519;45.408;10.962;2023-01-31T05:43:29;101244.22;;;4.37;74.39
45813;BME280;31519;45.408;10.962;2023-01-31T05:45:57;101246.41;;;4.45;74.01
45813;BME280;31519;45.408;10.962;2023-01-31T05:48:26;101252.28;;;4.31;75.01
45813;BME280;31519;45.408;10.962;2023-01-31T05:50:54;101255.31;;;4.39;74.87
45813;BME280;31519;45.408;10.962;2023-01-31T05:53:22;101267.38;;;4.35;74.41
45813;BME280;31519;45.408;10.962;2023-01-31T05:55:51;101259.09;;;4.27;75.04
45813;BME280;31519;45.408;10.962;2023-01-31T05:58:20;101265.66;;;4.24;74.85
45813;BME280;31519;45.408;10.962;2023-01-31T06:00:48;101267.19;;;4.20;75.58
45813;BME280;31519;45.408;10.962;2023-01-31T06:03:16;101267.19;;;4.20;75.51
45813;BME280;31519;45.408;10.962;2023-01-31T06:05:44;101262.63;;;4.16;76.27
45813;BME280;31519;45.408;10.962;2023-01-31T06:08:12;101274.16;;;4.10;76.89
45813;BME280;31519;45.408;10.962;2023-01-31T06:10:40;101270.06;;;4.19;76.67
45813;BME280;31519;45.408;10.962;2023-01-31T06:13:09;101279.94;;;4.28;75.91
45813;BME280;31519;45.408;10.962;2023-01-31T06:15:44;101289.19;;;4.31;75.64
45813;BME280;31519;45.408;10.962;2023-01-31T06:18:12;101295.34;;;4.36;74.87
45813;BME280;31519;45.408;10.962;2023-01-31T06:20:41;101298.91;;;4.25;74.74
45813;BME280;31519;45.408;10.962;2023-01-31T06:23:09;101301.34;;;4.32;74.64
45813;BME280;31519;45.408;10.962;2023-01-31T06:25:37;101298.91;;;4.25;75.06
45813;BME280;31519;45.408;10.962;2023-01-31T06:28:05;101301.91;;;4.34;75.41
45813;BME280;31519;45.408;10.962;2023-01-31T06:30:33;101307.94;;;4.13;75.36
45813;BME280;31519;45.408;10.962;2023-01-31T06:33:02;101329.44;;;4.05;75.77
45813;BME280;31519;45.408;10.962;2023-01-31T06:35:30;101331.34;;;4.26;75.46
45813;BME280;31519;45.408;10.962;2023-01-31T06:38:00;101332.78;;;4.17;76.24
45813;BME280;31519;45.408;10.962;2023-01-31T06:40:28;101334.44;;;4.39;75.18
45813;BME280;31519;45.408;10.962;2023-01-31T06:42:58;101333.56;;;4.17;75.67
45813;BME280;31519;45.408;10.962;2023-01-31T06:45:26;101325.00;;;4.27;75.48
45813;BME280;31519;45.408;10.962;2023-01-31T06:47:55;101337.09;;;4.39;75.37
45813;BME280;31519;45.408;10.962;2023-01-31T06:50:23;101345.56;;;4.25;75.56
45813;BME280;31519;45.408;10.962;2023-01-31T06:52:52;101353.22;;;4.26;74.54
45813;BME280;31519;45.408;10.962;2023-01-31T06:55:21;101342.03;;;4.19;75.33
45813;BME280;31519;45.408;10.962;2023-01-31T06:57:49;101344.06;;;4.12;75.85
45813;BME280;31519;45.408;10.962;2023-01-31T07:00:18;101352.09;;;4.22;75.47
45813;BME280;31519;45.408;10.962;2023-01-31T07:02:47;101349.38;;;4.17;75.87
45813;BME280;31519;45.408;10.962;2023-01-31T07:05:15;101362.25;;;4.14;75.82
45813;BME280;31519;45.408;10.962;2023-01-31T07:07:45;101361.63;;;4.07;76.57
45813;BME280;31519;45.408;10.962;2023-01-31T07:10:13;101370.75;;;4.16;75.91
45813;BME280;31519;45.408;10.962;2023-01-31T07:12:41;101360.91;;;4.28;75.82
45813;BME280;31519;45.408;10.962;2023-01-31T07:15:10;101364.03;;;4.25;75.80
45813;BME280;31519;45.408;10.962;2023-01-31T07:17:38;101357.53;;;4.49;75.40
45813;BME280;31519;45.408;10.962;2023-01-31T07:20:09;101364.09;;;4.46;74.64
45813;BME280;31519;45.408;10.962;2023-01-31T07:22:38;101360.44;;;4.69;73.38
45813;BME280;31519;45.408;10.962;2023-01-31T07:25:07;101367.97;;;4.99;71.98
45813;BME280;31519;45.408;10.962;2023-01-31T07:27:35;101366.91;;;5.00;71.51
45813;BME280;31519;45.408;10.962;2023-01-31T07:30:03;101363.22;;;5.01;71.48
45813;BME280;31519;45.408;10.962;2023-01-31T07:32:32;101368.50;;;5.01;72.30
45813;BME280;31519;45.408;10.962;2023-01-31T07:35:01;101378.56;;;5.04;71.85
45813;BME280;31519;45.408;10.962;2023-01-31T07:37:29;101364.91;;;5.07;72.14
45813;BME280;31519;45.408;10.962;2023-01-31T07:39:57;101373.78;;;5.45;71.29
45813;BME280;31519;45.408;10.962;2023-01-31T07:42:27;101372.19;;;5.00;72.66
45813;BME280;31519;45.408;10.962;2023-01-31T07:44:56;101371.88;;;5.40;70.83
45813;BME280;31519;45.408;10.962;2023-01-31T07:47:43;101365.56;;;6.27;66.91
45813;BME280;31519;45.408;10.962;2023-01-31T07:50:11;101377.38;;;6.14;66.91
45813;BME280;31519;45.408;10.962;2023-01-31T07:52:40;101372.03;;;6.09;66.42
45813;BME280;31519;45.408;10.962;2023-01-31T07:55:08;101365.22;;;6.18;65.99
45813;BME280;31519;45.408;10.962;2023-01-31T07:57:36;101372.22;;;6.02;65.39
45813;BME280;31519;45.408;10.962;2023-01-31T08:00:05;101364.19;;;6.24;64.04
45813;BME280;31519;45.408;10.962;2023-01-31T08:02:54;101367.25;;;6.90;62.70
45813;BME280;31519;45.408;10.962;2023-01-31T08:05:44;101374.72;;;7.03;62.26
45813;BME280;31519;45.408;10.962;2023-01-31T08:08:13;101372.97;;;7.29;61.77
45813;BME280;31519;45.408;10.962;2023-01-31T08:10:41;101378.91;;;7.76;60.49
45813;BME280;31519;45.408;10.962;2023-01-31T08:13:11;101382.91;;;7.99;58.75
45813;BME280;31519;45.408;10.962;2023-01-31T08:15:39;101384.75;;;7.98;58.62
45813;BME280;31519;45.408;10.962;2023-01-31T08:18:08;101388.75;;;8.26;56.71
45813;BME280;31519;45.408;10.962;2023-01-31T08:20:36;101396.72;;;8.06;56.27
45813;BME280;31519;45.408;10.962;2023-01-31T08:23:04;101394.84;;;7.91;55.87
45813;BME280;31519;45.408;10.962;2023-01-31T08:25:32;101385.81;;;7.82;56.94
45813;BME280;31519;45.408;10.962;2023-01-31T08:28:01;101395.66;;;8.22;55.91
45813;BME280;31519;45.408;10.962;2023-01-31T08:30:29;101385.78;;;8.73;54.82
45813;BME280;31519;45.408;10.962;2023-01-31T08:32:59;101394.03;;;8.62;53.88
45813;BME280;31519;45.408;10.962;2023-01-31T08:35:28;101407.63;;;8.25;56.46
45813;BME280;31519;45.408;10.962;2023-01-31T08:37:58;101415.81;;;7.88;57.68
45813;BME280;31519;45.408;10.962;2023-01-31T08:40:42;101419.78;;;8.00;57.43
45813;BME280;31519;45.408;10.962;2023-01-31T08:43:10;101413.19;;;8.28;55.79
45813;BME280;31519;45.408;10.962;2023-01-31T08:45:38;101401.19;;;8.76;56.92
45813;BME280;31519;45.408;10.962;2023-01-31T08:48:07;101406.47;;;8.92;56.76
45813;BME280;31519;45.408;10.962;2023-01-31T08:50:35;101402.19;;;8.96;57.16
45813;BME280;31519;45.408;10.962;2023-01-31T08:53:05;101402.66;;;9.13;58.12
45813;BME280;31519;45.408;10.962;2023-01-31T08:55:34;101404.84;;;9.06;58.03
45813;BME280;31519;45.408;10.962;2023-01-31T08:58:04;101411.41;;;9.23;55.35
45813;BME280;31519;45.408;10.962;2023-01-31T09:00:32;101412.19;;;9.29;57.47
45813;BME280;31519;45.408;10.962;2023-01-31T09:03:01;101415.31;;;9.41;58.33
45813;BME280;31519;45.408;10.962;2023-01-31T09:05:31;101415.38;;;9.80;57.83
45813;BME280;31519;45.408;10.962;2023-01-31T09:07:59;101415.44;;;9.70;58.86
45813;BME280;31519;45.408;10.962;2023-01-31T09:10:27;101407.66;;;9.78;59.72
45813;BME280;31519;45.408;10.962;2023-01-31T09:12:58;101414.94;;;10.02;59.58
45813;BME280;31519;45.408;10.962;2023-01-31T09:15:26;101408.56;;;10.65;58.15
45813;BME280;31519;45.408;10.962;2023-01-31T09:17:55;101407.38;;;11.00;57.29
45813;BME280;31519;45.408;10.962;2023-01-31T09:20:23;101407.59;;;10.56;57.89
45813;BME280;31519;45.408;10.962;2023-01-31T09:22:51;101407.28;;;10.63;57.90
45813;BME280;31519;45.408;10.962;2023-01-31T09:25:19;101412.50;;;10.97;56.78
45813;BME280;31519;45.408;10.962;2023-01-31T09:28:08;101414.09;;;11.22;58.19
45813;BME280;31519;45.408;10.962;2023-01-31T09:30:36;101410.19;;;11.33;57.53
45813;BME280;31519;45.408;10.962;2023-01-31T09:33:04;101422.47;;;11.10;58.61
45813;BME280;31519;45.408;10.962;2023-01-31T09:35:32;101412.91;;;10.56;61.42
45813;BME280;31519;45.408;10.962;2023-01-31T09:38:01;101412.72;;;10.14;62.42
45813;BME280;31519;45.408;10.962;2023-01-31T09:40:33;101417.13;;;10.34;62.63
45813;BME280;31519;45.408;10.962;2023-01-31T09:43:07;101414.69;;;10.03;64.26
45813;BME280;31519;45.408;10.962;2023-01-31T09:45:39;101412.63;;;10.29;64.53
45813;BME280;31519;45.408;10.962;2023-01-31T09:48:19;101413.41;;;10.87;64.07
45813;BME280;31519;45.408;10.962;2023-01-31T09:50:51;101410.47;;;11.13;62.91
45813;BME280;31519;45.408;10.962;2023-01-31T09:53:28;101412.59;;;11.10;63.10
45813;BME280;31519;45.408;10.962;2023-01-31T09:56:12;101416.06;;;11.53;61.21
45813;BME280;31519;45.408;10.962;2023-01-31T10:07:19;101416.03;;;11.96;57.56
45813;BME280;31519;45.408;10.962;2023-01-31T10:09:56;101420.25;;;12.48;55.00
45813;BME280;31519;45.408;10.962;2023-01-31T10:12:35;101430.34;;;12.51;54.19
45813;BME280;31519;45.408;10.962;2023-01-31T10:15:14;101430.88;;;12.02;55.21
45813;BME280;31519;45.408;10.962;2023-01-31T10:17:51;101428.06;;;11.93;55.26
45813;BME280;31519;45.408;10.962;2023-01-31T10:20:33;101431.81;;;12.11;54.93
45813;BME280;31519;45.408;10.962;2023-01-31T10:23:16;101430.72;;;12.91;54.06
45813;BME280;31519;45.408;10.962;2023-01-31T10:28:32;101426.47;;;13.17;53.91
45813;BME280;31519;45.408;10.962;2023-01-31T10:33:46;101435.56;;;13.02;56.07
45813;BME280;31519;45.408;10.962;2023-01-31T10:39:16;101413.88;;;12.90;56.92
45813;BME280;31519;45.408;10.962;2023-01-31T10:42:08;101410.19;;;13.76;54.54
45813;BME280;31519;45.408;10.962;2023-01-31T10:47:14;101393.34;;;13.76;54.84
45813;BME280;31519;45.408;10.962;2023-01-31T10:49:47;101399.88;;;13.48;55.37
45813;BME280;31519;45.408;10.962;2023-01-31T10:52:54;101393.91;;;13.87;53.95
45813;BME280;31519;45.408;10.962;2023-01-31T10:55:47;101393.69;;;14.50;52.12
45813;BME280;31519;45.408;10.962;2023-01-31T10:58:20;101393.06;;;13.77;53.51
45813;BME280;31519;45.408;10.962;2023-01-31T11:00:49;101389.03;;;14.33;53.42
45813;BME280;31519;45.408;10.962;2023-01-31T11:03:18;101394.16;;;14.43;52.24
45813;BME280;31519;45.408;10.962;2023-01-31T11:05:50;101394.53;;;14.06;52.46
45813;BME280;31519;45.408;10.962;2023-01-31T11:10:52;101382.28;;;15.23;49.21
45813;BME280;31519;45.408;10.962;2023-01-31T11:13:21;101383.44;;;15.74;48.14
45813;BME280;31519;45.408;10.962;2023-01-31T11:15:52;101382.13;;;16.14;47.68
45813;BME280;31519;45.408;10.962;2023-01-31T11:18:47;101380.00;;;14.51;50.76
45813;BME280;31519;45.408;10.962;2023-01-31T11:21:22;101377.91;;;14.79;48.82
45813;BME280;31519;45.408;10.962;2023-01-31T11:24:19;101376.13;;;16.17;47.45
45813;BME280;31519;45.408;10.962;2023-01-31T11:27:03;101380.69;;;15.31;47.35
45813;BME280;31519;45.408;10.962;2023-01-31T11:29:48;101374.09;;;15.37;47.83
45813;BME280;31519;45.408;10.962;2023-01-31T11:32:21;101364.28;;;15.15;47.59
45813;BME280;31519;45.408;10.962;2023-01-31T11:35:00;101371.25;;;15.42;47.07
45813;BME280;31519;45.408;10.962;2023-01-31T11:37:32;101366.38;;;15.44;46.58
45813;BME280;31519;45.408;10.962;2023-01-31T11:42:55;101362.00;;;16.84;44.48
45813;BME280;31519;45.408;10.962;2023-01-31T11:45:35;101360.47;;;16.74;44.80
45813;BME280;31519;45.408;10.962;2023-01-31T11:50:37;101361.81;;;16.42;44.80
45813;BME280;31519;45.408;10.962;2023-01-31T11:53:36;101358.88;;;16.18;45.31
45813;BME280;31519;45.408;10.962;2023-01-31T11:56:14;101352.69;;;16.81;44.37
45813;BME280;31519;45.408;10.962;2023-01-31T11:58:45;101351.28;;;16.29;43.96
45813;BME280;31519;45.408;10.962;2023-01-31T12:01:24;101352.47;;;15.85;44.58
45813;BME280;31519;45.408;10.962;2023-01-31T12:04:04;101345.72;;;15.53;45.06
45813;BME280;31519;45.408;10.962;2023-01-31T12:06:38;101344.72;;;15.92;44.60
45813;BME280;31519;45.408;10.962;2023-01-31T12:09:20;101341.66;;;17.66;40.93
45813;BME280;31519;45.408;10.962;2023-01-31T12:12:22;101347.41;;;17.56;37.82
45813;BME280;31519;45.408;10.962;2023-01-31T12:14:55;101345.53;;;17.77;36.76
45813;BME280;31519;45.408;10.962;2023-01-31T12:17:32;101338.06;;;18.07;35.72
45813;BME280;31519;45.408;10.962;2023-01-31T12:23:11;101341.63;;;18.44;34.96
45813;BME280;31519;45.408;10.962;2023-01-31T12:29:22;101330.34;;;17.31;36.59
45813;BME280;31519;45.408;10.962;2023-01-31T12:40:06;101312.56;;;18.04;34.60
45813;BME280;31519;45.408;10.962;2023-01-31T12:46:03;101303.78;;;18.65;32.61
45813;BME280;31519;45.408;10.962;2023-01-31T12:48:48;101298.50;;;18.68;32.05
45813;BME280;31519;45.408;10.962;2023-01-31T12:51:48;101288.75;;;18.06;33.08
45813;BME280;31519;45.408;10.962;2023-01-31T12:54:43;101297.03;;;19.23;31.63
45813;BME280;31519;45.408;10.962;2023-01-31T13:08:18;101279.63;;;19.08;30.92
45813;BME280;31519;45.408;10.962;2023-01-31T13:13:55;101271.84;;;19.74;30.30
45813;BME280;31519;45.408;10.962;2023-01-31T13:16:40;101271.44;;;19.04;30.29
45813;BME280;31519;45.408;10.962;2023-01-31T13:19:17;101265.16;;;20.00;29.35
45813;BME280;31519;45.408;10.962;2023-01-31T13:21:50;101257.03;;;17.79;32.25
45813;BME280;31519;45.408;10.962;2023-01-31T13:24:26;101259.72;;;17.79;32.49
45813;BME280;31519;45.408;10.962;2023-01-31T13:27:25;101253.03;;;18.34;31.85
45813;BME280;31519;45.408;10.962;2023-01-31T13:29:59;101250.03;;;18.23;31.16
45813;BME280;31519;45.408;10.962;2023-01-31T13:32:35;101246.94;;;19.53;28.96
45813;BME280;31519;45.408;10.962;2023-01-31T13:35:17;101250.34;;;19.50;28.76
45813;BME280;31519;45.408;10.962;2023-01-31T13:37:52;101242.13;;;17.94;30.27
45813;BME280;31519;45.408;10.962;2023-01-31T13:40:26;101253.69;;;17.94;30.42
45813;BME280;31519;45.408;10.962;2023-01-31T13:42:58;101251.22;;;19.54;28.80
45813;BME280;31519;45.408;10.962;2023-01-31T13:45:31;101251.34;;;19.73;28.82
45813;BME280;31519;45.408;10.962;2023-01-31T13:50:45;101240.09;;;20.50;28.72
45813;BME280;31519;45.408;10.962;2023-01-31T13:53:21;101222.72;;;20.51;28.01
45813;BME280;31519;45.408;10.962;2023-01-31T13:55:53;101230.31;;;20.29;28.60
45813;BME280;31519;45.408;10.962;2023-01-31T13:58:26;101226.22;;;20.20;28.72
45813;BME280;31519;45.408;10.962;2023-01-31T14:01:15;101220.78;;;20.51;28.62
45813;BME280;31519;45.408;10.962;2023-01-31T14:09:38;101228.75;;;20.98;26.79
45813;BME280;31519;45.408;10.962;2023-01-31T14:14:41;101227.72;;;21.87;25.79
45813;BME280;31519;45.408;10.962;2023-01-31T14:17:58;101216.72;;;21.34;25.52
45813;BME280;31519;45.408;10.962;2023-01-31T14:20:24;101218.19;;;20.74;26.28
45813;BME280;31519;45.408;10.962;2023-01-31T14:25:53;101227.19;;;20.27;27.30
45813;BME280;31519;45.408;10.962;2023-01-31T14:28:23;101238.09;;;19.13;28.54
45813;BME280;31519;45.408;10.962;2023-01-31T14:30:54;101225.44;;;19.01;28.30
45813;BME280;31519;45.408;10.962;2023-01-31T14:33:37;101231.91;;;18.72;28.90
45813;BME280;31519;45.408;10.962;2023-01-31T14:42:03;101214.38;;;20.24;28.19
45813;BME280;31519;45.408;10.962;2023-01-31T14:47:20;101200.91;;;21.17;26.84
45813;BME280;31519;45.408;10.962;2023-01-31T14:58:25;101203.50;;;22.24;26.41
45813;BME280;31519;45.408;10.962;2023-01-31T15:00:59;101202.81;;;23.16;25.05
45813;BME280;31519;45.408;10.962;2023-01-31T15:03:34;101207.97;;;23.65;24.14
45813;BME280;31519;45.408;10.962;2023-01-31T15:06:13;101202.28;;;23.04;25.51
45813;BME280;31519;45.408;10.962;2023-01-31T15:08:48;101202.13;;;22.89;25.42
45813;BME280;31519;45.408;10.962;2023-01-31T15:14:31;101210.59;;;21.83;25.16
45813;BME280;31519;45.408;10.962;2023-01-31T15:17:20;101210.09;;;21.12;26.21
45813;BME280;31519;45.408;10.962;2023-01-31T15:20:17;101211.72;;;23.94;23.14
45813;BME280;31519;45.408;10.962;2023-01-31T15:22:47;101210.97;;;23.53;22.93
45813;BME280;31519;45.408;10.962;2023-01-31T15:25:41;101202.50;;;22.91;23.72
45813;BME280;31519;45.408;10.962;2023-01-31T15:28:16;101213.06;;;22.14;25.08
45813;BME280;31519;45.408;10.962;2023-01-31T15:30:49;101203.53;;;20.94;26.66
45813;BME280;31519;45.408;10.962;2023-01-31T15:33:30;101207.81;;;20.76;26.99
45813;BME280;31519;45.408;10.962;2023-01-31T15:36:34;101216.00;;;18.95;28.67
45813;BME280;31519;45.408;10.962;2023-01-31T15:39:20;101204.41;;;18.94;29.22
45813;BME280;31519;45.408;10.962;2023-01-31T15:41:50;101214.72;;;19.04;29.52
45813;BME280;31519;45.408;10.962;2023-01-31T15:44:21;101206.69;;;20.11;28.33
45813;BME280;31519;45.408;10.962;2023-01-31T15:46:54;101209.09;;;17.40;32.52
45813;BME280;31519;45.408;10.962;2023-01-31T15:49:30;101221.59;;;15.94;35.23
45813;BME280;31519;45.408;10.962;2023-01-31T15:54:55;101228.97;;;15.50;36.67
45813;BME280;31519;45.408;10.962;2023-01-31T15:57:38;101225.28;;;14.43;38.39
45813;BME280;31519;45.408;10.962;2023-01-31T16:00:20;101222.84;;;14.25;39.65
45813;BME280;31519;45.408;10.962;2023-01-31T16:02:50;101226.53;;;14.46;40.31